Pacific Dawn — 2AGH7 — position and weather

sailwx.info

Track history (hours):
 
Tides and Currents Weather Stations Pressure Air Temp Water Temp Dewpoint Dewpoint Depression Visibility Wind Speed Wind Dir Waves Ship Positions

Pacific Dawn

Last reported at 2014-Sep-20 11:09 UTC. Time now 2014-Sep-21 12:12 UTC.
Position S 26°41' E 153°14'.

Length 245 m; draft 8.4 m.

Type: Passenger vessel. MMSI: 235059368.

Date/timePositionNaut miles runAvg speedWind from/ knotsBaromVisibWave heightAir tempDewpointWater temp
2014-Sep-20 11:09S 26°41' E 153°14'712.1
2014-Sep-20 10:33S 26°47' E 153°11'1514.8
2014-Sep-20 09:33S 27°01' E 153°15'1413.9
2014-Sep-20 08:33S 27°15' E 153°19'1212.4
2014-Sep-20 07:33S 27°24' E 153°09'5 5.2
2014-Sep-20 06:33S 27°27' E 153°04'0 0.0
2014-Sep-20 05:32S 27°26' E 153°04'0 0.0
2014-Sep-20 04:32S 27°26' E 153°04'0 0.0
2014-Sep-20 03:32S 27°26' E 153°04'0 0.0
2014-Sep-20 02:32S 27°26' E 153°04'0 0.0
2014-Sep-20 01:29S 27°26' E 153°04'0 0.0
2014-Sep-20 00:29S 27°26' E 153°04'0 0.0
2014-Sep-19 23:23S 27°26' E 153°04'0 0.0
2014-Sep-19 22:32S 27°26' E 153°04'0 0.0
2014-Sep-19 21:34S 27°26' E 153°04'4 4.4
2014-Sep-19 20:33S 27°25' E 153°09'1110.6
2014-Sep-19 19:34S 27°16' E 153°16'1313.0
2014-Sep-19 18:34S 27°03' E 153°18'1515.5
2014-Sep-19 17:33S 26°50' E 153°09'1313.3
2014-Sep-19 16:33S 26°38' E 153°16'1515.0
2014-Sep-19 15:32S 26°24' E 153°21'  
Track history (hours):
 
Tides and Currents Weather Stations Pressure Air Temp Water Temp Dewpoint Dewpoint Depression Visibility Wind Speed Wind Dir Waves Ship Positions

Pacific Dawn

Last reported at 2014-Sep-20 11:09 UTC. Time now 2014-Sep-21 12:12 UTC.
Position S 26°41' E 153°14'.

Length 245 m; draft 8.4 m.

Type: Passenger vessel. MMSI: 235059368.

Date/timePositionNaut miles runAvg speedWind from/ knotsBaromVisibWave heightAir tempDewpointWater temp
2014-Sep-20 11:09S 26°41' E 153°14'712.1
2014-Sep-20 10:33S 26°47' E 153°11'1514.8
2014-Sep-20 09:33S 27°01' E 153°15'1413.9
2014-Sep-20 08:33S 27°15' E 153°19'1212.4
2014-Sep-20 07:33S 27°24' E 153°09'5 5.2
2014-Sep-20 06:33S 27°27' E 153°04'0 0.0
2014-Sep-20 05:32S 27°26' E 153°04'0 0.0
2014-Sep-20 04:32S 27°26' E 153°04'0 0.0
2014-Sep-20 03:32S 27°26' E 153°04'0 0.0
2014-Sep-20 02:32S 27°26' E 153°04'0 0.0
2014-Sep-20 01:29S 27°26' E 153°04'0 0.0
2014-Sep-20 00:29S 27°26' E 153°04'0 0.0
2014-Sep-19 23:23S 27°26' E 153°04'0 0.0
2014-Sep-19 22:32S 27°26' E 153°04'0 0.0
2014-Sep-19 21:34S 27°26' E 153°04'4 4.4
2014-Sep-19 20:33S 27°25' E 153°09'1110.6
2014-Sep-19 19:34S 27°16' E 153°16'1313.0
2014-Sep-19 18:34S 27°03' E 153°18'1515.5
2014-Sep-19 17:33S 26°50' E 153°09'1313.3
2014-Sep-19 16:33S 26°38' E 153°16'1515.0
2014-Sep-19 15:32S 26°24' E 153°21'  

Dump ship's entire track history